La Mesa, California
Current Conditions -  °F | °C
As of 9:08 PM on Saturday 20 Dec 2014 (Local Time) from KMYF Reporting Station
Overcast Overcast  
Wind Chill: 60°   Ceiling: 3000
Heat Index: 60°   Visibility: 10mi
Dew Point: 54°   Wind: 0mph
Humidity: 80%   Direction: NA
Pressure: 30.17"   Gusts: NA
Location:  32.77°N, 117.02°W
Report Text: KMYF 210508Z AUTO 00000KT 10SM OVC030 16/12 A3017 RMK AO2 T01560122 TSNO
Loading
Personal Weather Stations






























Interactive Weather Map New forecast layout! Learn more

10-Day Weather Forecast

Advertisements
Track Severe Weather on mobile